createdAt,value
2017-09-30T00:00:12.617Z,5.87
2017-09-30T00:02:41.590Z,6.20
2017-09-30T00:05:09.683Z,6.53
2017-09-30T00:07:37.810Z,6.53
2017-09-30T00:10:06.283Z,7.30
2017-09-30T00:12:34.399Z,7.80
2017-09-30T00:15:02.612Z,6.93
2017-09-30T00:17:30.716Z,7.13
2017-09-30T00:19:58.819Z,6.00
2017-09-30T00:22:27.709Z,6.73
2017-09-30T00:24:55.787Z,6.40
2017-09-30T00:27:24.670Z,5.70
2017-09-30T00:29:52.796Z,6.47
2017-09-30T00:32:21.680Z,5.97
2017-09-30T00:34:49.800Z,6.00
2017-09-30T00:37:17.891Z,6.17
2017-09-30T00:39:45.991Z,5.70
2017-09-30T00:42:14.100Z,6.10
2017-09-30T00:44:42.196Z,6.37
2017-09-30T00:47:10.301Z,6.83
2017-09-30T00:49:38.404Z,7.20
2017-09-30T00:52:06.556Z,6.37
2017-09-30T00:54:34.680Z,6.10
2017-09-30T00:57:02.767Z,6.50
2017-09-30T00:59:31.629Z,6.47
2017-09-30T01:01:59.715Z,7.63
2017-09-30T01:04:27.803Z,6.87
2017-09-30T01:06:56.680Z,8.03
2017-09-30T01:09:24.774Z,7.50
2017-09-30T01:11:53.638Z,7.87
2017-09-30T01:14:21.764Z,7.47
2017-09-30T01:16:49.843Z,7.97
2017-09-30T01:19:17.967Z,7.80
2017-09-30T01:21:46.069Z,11.37
2017-09-30T01:24:14.158Z,13.63
2017-09-30T01:26:44.036Z,13.87
2017-09-30T01:29:12.967Z,14.40
2017-09-30T01:31:41.077Z,16.53
2017-09-30T01:34:09.178Z,17.20
2017-09-30T01:36:38.811Z,19.40
2017-09-30T01:39:07.126Z,21.83
2017-09-30T01:41:35.247Z,20.67
2017-09-30T01:44:03.771Z,20.97
2017-09-30T01:46:31.883Z,19.47
2017-09-30T01:49:00.014Z,19.10
2017-09-30T01:51:28.116Z,20.10
2017-09-30T01:53:56.219Z,23.97
2017-09-30T01:56:24.336Z,23.40
2017-09-30T01:58:52.431Z,22.70
2017-09-30T02:01:20.582Z,21.83
2017-09-30T02:03:48.675Z,17.30
2017-09-30T02:06:18.311Z,15.93
2017-09-30T02:08:47.756Z,11.27
2017-09-30T02:11:15.836Z,8.03
2017-09-30T02:13:45.019Z,9.30
2017-09-30T02:16:13.095Z,9.00
2017-09-30T02:18:41.268Z,8.57
2017-09-30T02:21:09.343Z,8.00
2017-09-30T02:23:39.820Z,8.13
2017-09-30T02:26:07.910Z,8.10
2017-09-30T02:28:36.007Z,7.87
2017-09-30T02:31:04.096Z,6.70
2017-09-30T02:33:32.193Z,6.90
2017-09-30T02:36:00.289Z,5.87
2017-09-30T02:38:28.451Z,5.50
2017-09-30T02:40:56.557Z,4.90
2017-09-30T02:43:24.648Z,4.70
2017-09-30T02:45:52.744Z,5.50
2017-09-30T02:48:20.853Z,4.60
2017-09-30T02:50:49.695Z,4.07
2017-09-30T02:53:17.771Z,4.10
2017-09-30T02:55:45.863Z,4.50
2017-09-30T02:58:13.965Z,4.20
2017-09-30T03:00:42.043Z,4.60
2017-09-30T03:03:10.147Z,4.57
2017-09-30T03:05:38.231Z,4.30
2017-09-30T03:08:06.320Z,4.30
2017-09-30T03:10:34.435Z,4.80
2017-09-30T03:13:02.556Z,5.60
2017-09-30T03:15:31.679Z,6.80
2017-09-30T03:17:59.767Z,7.17
2017-09-30T03:20:28.997Z,7.10
2017-09-30T03:22:57.136Z,7.53
2017-09-30T03:25:25.226Z,8.50
2017-09-30T03:27:53.337Z,8.20
2017-09-30T03:30:21.438Z,9.10
2017-09-30T03:32:50.311Z,8.83
2017-09-30T03:35:18.410Z,9.40
2017-09-30T03:37:47.283Z,9.13
2017-09-30T03:40:15.366Z,9.57
2017-09-30T03:42:44.215Z,10.00
2017-09-30T03:45:12.548Z,10.30
2017-09-30T03:47:41.401Z,9.30
2017-09-30T03:50:09.502Z,10.50
2017-09-30T03:52:38.369Z,9.50
2017-09-30T03:55:06.457Z,10.47
2017-09-30T03:57:35.295Z,10.10
2017-09-30T04:00:03.916Z,9.80
2017-09-30T04:02:31.998Z,10.83
2017-09-30T04:05:00.102Z,9.70
2017-09-30T04:07:28.194Z,9.80
2017-09-30T04:09:56.268Z,10.97
2017-09-30T04:12:24.425Z,10.00
2017-09-30T04:14:52.514Z,9.07
2017-09-30T04:17:20.635Z,10.20
2017-09-30T04:19:48.710Z,9.17
2017-09-30T04:22:16.838Z,10.10
2017-09-30T04:24:44.924Z,9.13
2017-09-30T04:27:13.023Z,9.00
2017-09-30T04:29:41.967Z,8.70
2017-09-30T04:32:10.069Z,9.97
2017-09-30T04:34:38.171Z,8.43
2017-09-30T04:37:07.255Z,9.73
2017-09-30T04:39:35.330Z,9.87
2017-09-30T04:42:04.203Z,9.47
2017-09-30T04:44:32.294Z,10.90
2017-09-30T04:47:01.303Z,10.07
2017-09-30T04:49:29.403Z,10.13
2017-09-30T04:51:57.519Z,10.40
2017-09-30T04:54:26.620Z,10.07
2017-09-30T04:56:55.628Z,9.20
2017-09-30T04:59:24.080Z,9.30
2017-09-30T05:01:53.087Z,8.07
2017-09-30T05:04:21.174Z,8.23
2017-09-30T05:06:50.041Z,8.73
2017-09-30T05:09:18.911Z,9.00
2017-09-30T05:11:46.987Z,9.13
2017-09-30T05:14:15.095Z,8.97
2017-09-30T05:16:43.971Z,8.03
2017-09-30T05:19:12.120Z,8.40
2017-09-30T05:21:40.243Z,8.60
2017-09-30T05:24:08.331Z,9.20
2017-09-30T05:26:36.436Z,9.90
2017-09-30T05:29:05.647Z,8.07
2017-09-30T05:31:35.134Z,10.07
2017-09-30T05:34:03.231Z,9.83
2017-09-30T05:36:33.571Z,9.63
2017-09-30T05:39:01.711Z,8.73
2017-09-30T05:41:29.795Z,8.80
2017-09-30T05:43:58.915Z,8.30
2017-09-30T05:46:27.816Z,8.70
2017-09-30T05:48:55.886Z,9.07
2017-09-30T05:51:23.968Z,9.47
2017-09-30T05:53:52.090Z,8.73
2017-09-30T05:56:22.197Z,9.30
2017-09-30T05:58:50.283Z,8.40
2017-09-30T06:01:18.382Z,9.40
2017-09-30T06:03:46.466Z,7.47
2017-09-30T06:06:14.571Z,8.13
2017-09-30T06:08:42.802Z,7.30
2017-09-30T06:11:10.899Z,8.20
2017-09-30T06:13:39.004Z,8.90
2017-09-30T06:16:07.099Z,9.37
2017-09-30T06:18:35.180Z,9.30
2017-09-30T06:21:05.483Z,9.57
2017-09-30T06:23:33.783Z,8.13
2017-09-30T06:26:02.643Z,9.00
2017-09-30T06:28:30.738Z,9.80
2017-09-30T06:30:58.901Z,7.90
2017-09-30T06:33:26.994Z,8.73
2017-09-30T06:35:55.149Z,9.60
2017-09-30T06:38:23.242Z,9.10
2017-09-30T06:40:51.336Z,9.23
2017-09-30T06:43:20.217Z,10.37
2017-09-30T06:45:48.294Z,9.93
2017-09-30T06:48:16.935Z,9.93
2017-09-30T06:50:45.029Z,9.70
2017-09-30T06:53:13.127Z,9.30
2017-09-30T06:55:41.994Z,8.57
2017-09-30T06:58:10.095Z,8.60
2017-09-30T07:00:38.199Z,8.37
2017-09-30T07:03:06.283Z,8.00
2017-09-30T07:05:34.377Z,7.67
2017-09-30T07:08:02.497Z,8.93
2017-09-30T07:10:30.579Z,8.47
2017-09-30T07:12:59.127Z,7.80
2017-09-30T07:15:27.977Z,8.20
2017-09-30T07:17:56.104Z,7.90
2017-09-30T07:20:24.454Z,7.13
2017-09-30T07:22:52.568Z,7.07
2017-09-30T07:25:31.526Z,8.30
2017-09-30T07:27:59.642Z,8.17
2017-09-30T07:30:28.626Z,6.80
2017-09-30T07:32:57.746Z,8.77
2017-09-30T07:35:26.588Z,8.13
2017-09-30T07:37:54.703Z,7.60
2017-09-30T07:40:23.547Z,8.07
2017-09-30T07:42:52.038Z,7.80
2017-09-30T07:45:20.347Z,7.97
2017-09-30T07:47:48.450Z,7.30
2017-09-30T07:50:16.568Z,7.37
2017-09-30T07:52:44.701Z,8.20
2017-09-30T07:55:13.543Z,8.27
2017-09-30T07:57:41.663Z,8.07
2017-09-30T08:00:09.756Z,8.03
2017-09-30T08:02:37.854Z,7.40
2017-09-30T08:05:06.247Z,7.60
2017-09-30T08:07:34.397Z,6.67
2017-09-30T08:10:02.544Z,7.13
2017-09-30T08:12:30.648Z,7.70
2017-09-30T08:14:58.759Z,6.80
2017-09-30T08:17:26.891Z,7.53
2017-09-30T08:19:55.029Z,7.60
2017-09-30T08:22:23.263Z,7.77
2017-09-30T08:24:52.073Z,7.90
2017-09-30T08:27:20.177Z,8.00
2017-09-30T08:29:48.233Z,8.20
2017-09-30T08:32:16.593Z,7.37
2017-09-30T08:34:44.687Z,7.90
2017-09-30T08:37:12.852Z,8.17
2017-09-30T08:39:40.949Z,6.90
2017-09-30T08:42:09.059Z,7.43
2017-09-30T08:44:38.859Z,7.73
2017-09-30T08:47:07.115Z,8.40
2017-09-30T08:49:35.220Z,7.20
2017-09-30T08:52:04.089Z,7.10
2017-09-30T08:54:32.209Z,7.10
2017-09-30T08:57:00.323Z,7.20
2017-09-30T08:59:28.414Z,7.20
2017-09-30T09:01:56.545Z,7.10
2017-09-30T09:04:24.795Z,7.50
2017-09-30T09:06:52.928Z,7.57
2017-09-30T09:09:21.239Z,6.90
2017-09-30T09:27:11.600Z,6.90
2017-09-30T09:29:39.684Z,7.60
2017-09-30T09:32:07.791Z,8.10
2017-09-30T09:34:35.903Z,8.73
2017-09-30T09:37:04.042Z,11.00
2017-09-30T09:39:32.159Z,9.07
2017-09-30T09:42:00.266Z,12.20
2017-09-30T09:44:28.423Z,10.47
2017-09-30T09:46:56.674Z,11.80
2017-09-30T09:49:24.762Z,11.67
2017-09-30T09:51:52.902Z,11.60
2017-09-30T09:54:21.006Z,12.90
2017-09-30T09:56:49.122Z,13.77
2017-09-30T09:59:17.222Z,15.60
2017-09-30T10:01:45.344Z,15.80
2017-09-30T10:04:14.207Z,14.47
2017-09-30T10:06:42.384Z,14.70
2017-09-30T10:09:10.480Z,12.90
2017-09-30T10:11:38.554Z,12.60
2017-09-30T10:14:06.671Z,12.90
2017-09-30T10:16:34.780Z,10.27
2017-09-30T10:19:02.908Z,9.20
2017-09-30T10:21:31.065Z,4.10
2017-09-30T10:23:59.154Z,3.50
2017-09-30T10:26:27.260Z,3.77
2017-09-30T10:28:55.342Z,3.97
2017-09-30T10:31:23.456Z,4.43
2017-09-30T10:33:51.543Z,5.00
2017-09-30T10:36:19.737Z,5.30
2017-09-30T10:38:48.328Z,5.30
2017-09-30T10:41:16.415Z,5.67
2017-09-30T10:43:44.500Z,5.70
2017-09-30T10:46:12.690Z,5.40
2017-09-30T10:48:42.655Z,4.70
2017-09-30T10:51:11.827Z,5.37
2017-09-30T10:53:39.914Z,5.33
2017-09-30T10:56:08.020Z,5.37
2017-09-30T10:58:36.121Z,5.67
2017-09-30T11:01:04.222Z,5.97
2017-09-30T11:03:32.349Z,5.50
2017-09-30T11:06:00.442Z,6.60
2017-09-30T11:08:28.567Z,6.67
2017-09-30T11:10:56.658Z,7.17
2017-09-30T11:13:24.776Z,6.43
2017-09-30T11:15:53.848Z,7.17
2017-09-30T11:18:22.695Z,7.47
2017-09-30T11:20:50.822Z,8.60
2017-09-30T11:23:18.893Z,7.43
2017-09-30T11:25:47.771Z,7.57
2017-09-30T11:28:16.172Z,6.80
2017-09-30T11:30:44.347Z,6.20
2017-09-30T11:33:12.434Z,7.90
2017-09-30T11:35:40.536Z,8.33
2017-09-30T11:38:08.841Z,8.40
2017-09-30T11:40:36.956Z,9.13
2017-09-30T11:43:05.551Z,9.53
2017-09-30T11:45:33.679Z,9.93
2017-09-30T11:48:02.708Z,10.47
2017-09-30T11:50:30.795Z,10.30
2017-09-30T11:52:58.944Z,10.70
2017-09-30T11:55:27.047Z,11.77
2017-09-30T11:57:55.252Z,10.50
2017-09-30T12:00:24.308Z,10.43
2017-09-30T12:02:52.385Z,11.77
2017-09-30T12:05:20.760Z,11.10
2017-09-30T12:07:48.950Z,12.30
2017-09-30T12:10:17.072Z,11.63
2017-09-30T12:12:45.150Z,12.77
2017-09-30T12:15:13.271Z,12.40
2017-09-30T12:17:41.479Z,12.10
2017-09-30T12:20:09.570Z,12.70
2017-09-30T12:22:37.655Z,13.10
2017-09-30T12:25:06.193Z,13.17
2017-09-30T12:27:34.305Z,10.37
2017-09-30T12:30:02.569Z,9.13
2017-09-30T12:32:31.583Z,10.00
2017-09-30T12:34:59.700Z,9.90
2017-09-30T12:37:28.706Z,9.80
2017-09-30T12:39:56.872Z,9.47
2017-09-30T12:42:25.923Z,10.47
2017-09-30T12:44:55.620Z,10.67
2017-09-30T12:47:23.715Z,9.73
2017-09-30T12:49:51.818Z,10.40
2017-09-30T12:52:19.937Z,10.07
2017-09-30T12:54:48.045Z,9.47
2017-09-30T12:57:16.660Z,8.60
2017-09-30T12:59:45.538Z,8.97
2017-09-30T13:02:13.650Z,8.20
2017-09-30T13:04:41.782Z,7.27
2017-09-30T13:07:11.994Z,7.17
2017-09-30T13:09:41.667Z,6.27
2017-09-30T13:12:09.773Z,5.00
2017-09-30T13:14:38.093Z,6.10
2017-09-30T13:17:06.258Z,6.47
2017-09-30T13:19:34.371Z,7.77
2017-09-30T13:22:02.473Z,7.80
2017-09-30T13:24:30.939Z,7.40
2017-09-30T13:26:59.990Z,8.40
2017-09-30T13:29:28.059Z,8.57
2017-09-30T13:31:56.931Z,9.70
2017-09-30T13:34:25.034Z,8.87
2017-09-30T13:36:53.139Z,7.37
2017-09-30T13:39:22.129Z,7.23
2017-09-30T13:41:51.320Z,8.07
2017-09-30T13:44:19.419Z,7.17
2017-09-30T13:46:48.172Z,5.27
2017-09-30T13:49:16.280Z,5.23
2017-09-30T13:51:44.404Z,4.77
2017-09-30T13:54:12.811Z,4.90
2017-09-30T13:56:41.577Z,5.70
2017-09-30T13:59:09.671Z,5.27
2017-09-30T14:01:37.756Z,4.90
2017-09-30T14:04:06.143Z,5.37
2017-09-30T14:06:34.247Z,4.47
2017-09-30T14:09:02.358Z,4.60
2017-09-30T14:11:30.451Z,5.40
2017-09-30T14:13:58.553Z,4.60
2017-09-30T14:16:26.864Z,5.23
2017-09-30T14:18:54.960Z,5.00
2017-09-30T14:21:24.250Z,4.80
2017-09-30T14:23:53.096Z,5.50
2017-09-30T14:26:21.185Z,6.10
2017-09-30T14:28:50.047Z,6.20
2017-09-30T14:31:18.153Z,7.07
2017-09-30T14:33:47.036Z,6.77
2017-09-30T14:36:15.905Z,6.63
2017-09-30T14:38:44.011Z,6.80
2017-09-30T14:41:12.109Z,6.77
2017-09-30T14:43:40.262Z,6.53
2017-09-30T14:46:08.347Z,7.80
2017-09-30T14:48:36.941Z,7.00
2017-09-30T14:51:05.121Z,6.77
2017-09-30T14:53:33.190Z,6.40
2017-09-30T14:56:01.277Z,6.30
2017-09-30T14:58:29.385Z,5.30
2017-09-30T15:00:58.227Z,6.47
2017-09-30T15:03:26.334Z,7.60
2017-09-30T15:05:54.460Z,6.93
2017-09-30T15:08:22.600Z,7.27
2017-09-30T15:10:51.491Z,6.03
2017-09-30T15:13:20.497Z,7.43
2017-09-30T15:15:48.603Z,5.70
2017-09-30T15:18:16.691Z,5.10
2017-09-30T15:20:44.892Z,4.73
2017-09-30T15:23:13.996Z,3.90
2017-09-30T15:25:42.099Z,3.63
2017-09-30T15:28:10.195Z,2.60
2017-09-30T15:30:38.304Z,3.10
2017-09-30T15:33:07.162Z,2.30
2017-09-30T15:35:35.401Z,2.50
2017-09-30T15:38:03.481Z,2.37
2017-09-30T15:40:31.628Z,2.20
2017-09-30T15:42:59.745Z,3.33
2017-09-30T15:45:27.907Z,4.50
2017-09-30T15:47:56.028Z,3.90
2017-09-30T15:50:24.494Z,2.80
2017-09-30T15:52:52.848Z,4.30
2017-09-30T15:55:21.227Z,3.77
2017-09-30T15:57:49.385Z,4.57
2017-09-30T16:00:17.504Z,3.93
2017-09-30T16:02:46.653Z,4.50
2017-09-30T16:05:14.789Z,4.90
2017-09-30T16:07:43.380Z,8.50
2017-09-30T16:10:12.247Z,11.10
2017-09-30T16:12:40.364Z,4.90
2017-09-30T16:15:08.477Z,4.70
2017-09-30T16:17:36.654Z,4.20
2017-09-30T16:20:05.307Z,3.87
2017-09-30T16:22:33.635Z,3.80
2017-09-30T16:25:01.719Z,3.80
2017-09-30T16:27:30.587Z,4.00
2017-09-30T16:29:59.479Z,3.87
2017-09-30T16:32:27.621Z,3.77
2017-09-30T16:34:55.730Z,3.57
2017-09-30T16:37:24.079Z,3.13
2017-09-30T16:39:52.426Z,3.60
2017-09-30T16:42:20.605Z,3.40
2017-09-30T16:44:48.794Z,3.83
2017-09-30T16:47:17.002Z,3.97
2017-09-30T16:49:45.091Z,3.30
2017-09-30T16:52:13.246Z,3.10
2017-09-30T16:54:41.323Z,3.23
2017-09-30T16:57:09.455Z,3.10
2017-09-30T16:59:37.556Z,3.13
2017-09-30T17:02:05.651Z,2.70
2017-09-30T17:04:33.882Z,52.70
2017-09-30T17:07:02.024Z,21.73
2017-09-30T17:09:30.166Z,4.70
2017-09-30T17:11:58.250Z,24.10
2017-09-30T17:14:26.342Z,5.50
2017-09-30T17:16:54.439Z,6.40
2017-09-30T17:19:23.485Z,11.30
2017-09-30T17:21:52.371Z,10.10
2017-09-30T17:24:20.990Z,8.53
2017-09-30T17:26:49.890Z,6.77
2017-09-30T17:29:17.977Z,4.23
2017-09-30T17:31:46.106Z,3.70
2017-09-30T17:34:15.140Z,14.60
2017-09-30T17:36:44.267Z,14.80
2017-09-30T17:39:12.356Z,19.43
2017-09-30T17:41:41.265Z,12.80
2017-09-30T17:44:09.568Z,8.87
2017-09-30T17:46:37.690Z,6.77
2017-09-30T17:49:05.822Z,5.67
2017-09-30T17:51:34.499Z,5.47
2017-09-30T17:54:02.897Z,5.20
2017-09-30T17:56:31.264Z,4.30
2017-09-30T17:58:59.369Z,4.57
2017-09-30T18:01:27.475Z,4.63
2017-09-30T18:03:56.343Z,4.50
2017-09-30T18:06:24.472Z,4.50
2017-09-30T18:08:52.571Z,3.80
2017-09-30T18:11:20.654Z,7.10
2017-09-30T18:13:48.767Z,6.57
2017-09-30T18:16:17.843Z,5.77
2017-09-30T18:18:46.715Z,5.33
2017-09-30T18:21:14.823Z,4.83
2017-09-30T18:23:42.924Z,4.97
2017-09-30T18:26:11.028Z,4.50
2017-09-30T18:28:39.111Z,5.00
2017-09-30T18:31:07.573Z,4.70
2017-09-30T18:33:35.663Z,5.90
2017-09-30T18:36:03.790Z,5.63
2017-09-30T18:38:31.900Z,6.37
2017-09-30T18:41:00.035Z,5.90
2017-09-30T18:43:28.177Z,7.00
2017-09-30T18:45:56.285Z,5.57
2017-09-30T18:48:24.372Z,5.83
2017-09-30T18:50:52.451Z,6.30
2017-09-30T18:53:20.607Z,7.17
2017-09-30T18:55:49.044Z,7.40
2017-09-30T18:58:17.939Z,5.90
2017-09-30T19:00:46.794Z,7.07
2017-09-30T19:03:16.801Z,6.27
2017-09-30T19:05:44.928Z,5.97
2017-09-30T19:08:13.797Z,6.00
2017-09-30T19:10:41.920Z,6.30
2017-09-30T19:13:09.994Z,5.63
2017-09-30T19:15:38.110Z,6.60
2017-09-30T19:18:06.207Z,6.80
2017-09-30T19:20:35.067Z,7.20
2017-09-30T19:23:03.679Z,7.73
2017-09-30T19:25:31.791Z,9.13
2017-09-30T19:27:59.921Z,7.87
2017-09-30T19:30:28.851Z,7.17
2017-09-30T19:32:57.046Z,6.73
2017-09-30T19:35:28.913Z,7.40
2017-09-30T19:37:57.020Z,7.20
2017-09-30T19:40:25.891Z,8.03
2017-09-30T19:42:54.001Z,7.60
2017-09-30T19:45:23.291Z,7.07
2017-09-30T19:47:51.478Z,7.40
2017-09-30T19:50:19.591Z,9.80
2017-09-30T19:52:47.682Z,7.43
2017-09-30T19:55:15.776Z,7.83
2017-09-30T19:57:44.086Z,8.30
2017-09-30T20:00:12.201Z,9.03
2017-09-30T20:02:40.304Z,9.13
2017-09-30T20:05:09.157Z,10.33
2017-09-30T20:07:37.286Z,8.47
2017-09-30T20:10:05.420Z,9.60
2017-09-30T20:12:33.534Z,8.80
2017-09-30T20:15:02.600Z,8.60
2017-09-30T20:17:30.705Z,8.60
2017-09-30T20:19:58.852Z,9.20
2017-09-30T20:22:26.986Z,9.80
2017-09-30T20:24:55.068Z,8.50
2017-09-30T20:27:23.174Z,8.73
2017-09-30T20:29:51.261Z,7.43
2017-09-30T20:32:19.375Z,8.03
2017-09-30T20:34:48.435Z,6.90
2017-09-30T20:37:16.549Z,7.40
2017-09-30T20:39:44.691Z,7.80
2017-09-30T20:42:12.787Z,7.17
2017-09-30T20:44:40.913Z,8.20
2017-09-30T20:47:09.007Z,8.37
2017-09-30T20:49:37.103Z,7.90
2017-09-30T20:52:05.208Z,7.50
2017-09-30T20:54:33.347Z,8.53
2017-09-30T20:57:03.144Z,7.97
2017-09-30T20:59:31.243Z,8.97
2017-09-30T21:01:59.363Z,8.37
2017-09-30T21:04:27.447Z,8.23
2017-09-30T21:06:55.566Z,8.33
2017-09-30T21:09:23.642Z,7.43
2017-09-30T21:11:51.719Z,8.10
2017-09-30T21:14:20.612Z,8.37
2017-09-30T21:16:49.482Z,8.03
2017-09-30T21:19:17.605Z,7.13
2017-09-30T21:21:45.696Z,7.87
2017-09-30T21:24:17.118Z,9.70
2017-09-30T21:26:45.343Z,8.40
2017-09-30T21:29:13.489Z,8.20
2017-09-30T21:31:41.615Z,8.40
2017-09-30T21:34:09.695Z,8.80
2017-09-30T21:36:37.801Z,9.40
2017-09-30T21:39:05.919Z,8.87
2017-09-30T21:41:34.046Z,8.87
2017-09-30T21:44:02.452Z,9.40
2017-09-30T21:46:30.534Z,9.43
2017-09-30T21:48:58.694Z,9.63
2017-09-30T21:51:26.792Z,9.47
2017-09-30T21:53:54.920Z,9.23
2017-09-30T21:56:23.023Z,7.93
2017-09-30T21:58:51.123Z,7.77
2017-09-30T22:01:19.215Z,8.40
2017-09-30T22:03:48.079Z,11.70
2017-09-30T22:06:16.265Z,7.23
2017-09-30T22:08:45.235Z,7.17
2017-09-30T22:11:13.332Z,6.77
2017-09-30T22:13:41.426Z,6.97
2017-09-30T22:16:09.504Z,7.00
2017-09-30T22:18:37.633Z,7.60
2017-09-30T22:21:05.748Z,7.77
2017-09-30T22:23:33.921Z,9.00
2017-09-30T22:26:02.359Z,9.17
2017-09-30T22:28:30.455Z,9.33
2017-09-30T22:30:58.556Z,8.90
2017-09-30T22:33:26.674Z,7.93
2017-09-30T22:35:54.766Z,8.40
2017-09-30T22:38:23.607Z,8.97
2017-09-30T22:40:51.705Z,8.37
2017-09-30T22:43:20.047Z,8.47
2017-09-30T22:45:48.407Z,7.90
2017-09-30T22:48:16.499Z,5.77
2017-09-30T22:50:45.390Z,5.77
2017-09-30T22:53:13.537Z,5.30
2017-09-30T22:55:41.619Z,5.13
2017-09-30T22:58:09.709Z,6.13
2017-09-30T23:00:38.556Z,5.70
2017-09-30T23:03:07.436Z,5.10
2017-09-30T23:05:35.511Z,5.20
2017-09-30T23:08:04.352Z,6.50
2017-09-30T23:10:32.466Z,6.30
2017-09-30T23:13:00.538Z,6.70
2017-09-30T23:15:28.660Z,5.90
2017-09-30T23:17:56.733Z,5.13
2017-09-30T23:20:24.806Z,5.27
2017-09-30T23:22:52.951Z,5.70
2017-09-30T23:25:21.042Z,6.50
2017-09-30T23:27:49.129Z,5.80
2017-09-30T23:30:17.204Z,5.87
2017-09-30T23:32:45.274Z,5.83
2017-09-30T23:35:13.391Z,6.73
2017-09-30T23:37:42.484Z,7.77
2017-09-30T23:40:10.596Z,8.80
2017-09-30T23:42:38.779Z,11.03
2017-09-30T23:47:38.555Z,12.30
2017-09-30T23:50:07.787Z,11.60
2017-09-30T23:52:36.631Z,12.63
2017-09-30T23:55:04.742Z,12.63
2017-09-30T23:57:33.602Z,13.50
